createdAt,value
2022-08-05T00:00:12.907Z,31.70
2022-08-05T00:02:43.850Z,31.70
2022-08-05T00:06:02.682Z,31.70
2022-08-05T00:08:05.517Z,31.60
2022-08-05T00:10:51.893Z,31.60
2022-08-05T00:13:19.848Z,31.60
2022-08-05T00:15:55.202Z,31.50
2022-08-05T00:18:24.910Z,31.50
2022-08-05T00:20:51.783Z,31.50
2022-08-05T00:23:44.482Z,31.50
2022-08-05T00:26:07.477Z,31.50
2022-08-05T00:28:34.733Z,31.50
2022-08-05T00:31:02.855Z,31.50
2022-08-05T00:34:54.968Z,31.50
2022-08-05T00:37:11.667Z,31.50
2022-08-05T00:39:05.674Z,31.50
2022-08-05T00:41:51.858Z,31.40
2022-08-05T00:44:30.626Z,31.40
2022-08-05T00:47:02.121Z,31.40
2022-08-05T00:49:32.492Z,31.40
2022-08-05T00:51:59.978Z,31.40
2022-08-05T00:54:28.214Z,31.30
2022-08-05T00:56:57.054Z,31.30
2022-08-05T00:59:23.763Z,31.30
2022-08-05T01:01:51.096Z,31.30
2022-08-05T01:04:20.346Z,31.30
2022-08-05T01:06:53.504Z,31.30
2022-08-05T01:09:21.961Z,31.20
2022-08-05T01:11:52.119Z,31.20
2022-08-05T01:14:41.758Z,31.10
2022-08-05T01:17:20.591Z,31.10
2022-08-05T01:20:02.340Z,31.20
2022-08-05T01:22:49.744Z,31.10
2022-08-05T01:25:53.394Z,31.10
2022-08-05T01:28:20.151Z,31.10
2022-08-05T01:30:56.995Z,31.10
2022-08-05T01:33:35.356Z,31.00
2022-08-05T01:36:12.826Z,31.00
2022-08-05T01:38:45.856Z,31.00
2022-08-05T01:41:18.114Z,31.00
2022-08-05T01:43:50.683Z,30.90
2022-08-05T01:46:42.716Z,30.90
2022-08-05T01:49:23.073Z,30.90
2022-08-05T01:51:55.445Z,30.90
2022-08-05T01:54:27.330Z,30.80
2022-08-05T01:58:29.496Z,30.80
2022-08-05T01:59:47.098Z,30.80
2022-08-05T02:02:15.989Z,30.80
2022-08-05T02:04:46.157Z,30.80
2022-08-05T02:07:21.935Z,30.70
2022-08-05T02:09:50.343Z,30.70
2022-08-05T02:12:42.534Z,30.70
2022-08-05T02:15:37.128Z,30.70
2022-08-05T02:18:33.085Z,30.70
2022-08-05T02:21:15.553Z,30.70
2022-08-05T02:23:45.996Z,30.70
2022-08-05T02:26:15.650Z,30.70
2022-08-05T02:28:45.906Z,30.60
2022-08-05T02:31:17.042Z,30.60
2022-08-05T02:33:57.296Z,30.60
2022-08-05T02:36:27.914Z,30.60
2022-08-05T02:38:59.865Z,30.50
2022-08-05T02:41:28.590Z,30.60
2022-08-05T02:44:13.152Z,30.50
2022-08-05T02:46:44.040Z,30.50
2022-08-05T02:49:27.478Z,30.50
2022-08-05T02:52:06.302Z,30.50
2022-08-05T02:54:36.903Z,30.50
2022-08-05T02:57:10.139Z,30.40
2022-08-05T02:59:54.908Z,30.50
2022-08-05T03:02:27.782Z,30.40
2022-08-05T03:04:57.220Z,30.40
2022-08-05T03:07:59.162Z,30.30
2022-08-05T03:10:15.539Z,30.30
2022-08-05T03:12:49.446Z,30.30
2022-08-05T03:15:19.977Z,30.20
2022-08-05T03:17:46.615Z,29.90
2022-08-05T03:20:13.699Z,28.20
2022-08-05T03:22:46.707Z,27.50
2022-08-05T03:25:32.880Z,27.10
2022-08-05T03:28:02.536Z,27.00
2022-08-05T03:30:34.669Z,27.10
2022-08-05T03:33:06.126Z,27.10
2022-08-05T03:35:33.813Z,27.10
2022-08-05T03:38:01.500Z,27.20
2022-08-05T03:40:32.102Z,27.40
2022-08-05T03:43:15.666Z,27.60
2022-08-05T03:45:55.126Z,27.80
2022-08-05T03:48:25.322Z,27.90
2022-08-05T03:52:35.003Z,28.00
2022-08-05T03:55:49.907Z,28.30
2022-08-05T03:57:00.482Z,28.50
2022-08-05T03:59:54.327Z,28.40
2022-08-05T04:02:37.499Z,28.20
2022-08-05T04:05:09.758Z,27.70
2022-08-05T04:07:51.444Z,27.50
2022-08-05T04:10:28.324Z,27.20
2022-08-05T04:12:59.235Z,27.10
2022-08-05T04:15:28.009Z,27.10
2022-08-05T04:18:03.712Z,27.10
2022-08-05T04:20:33.755Z,26.90
2022-08-05T04:23:00.405Z,26.80
2022-08-05T04:25:57.759Z,26.70
2022-08-05T04:28:14.423Z,26.50
2022-08-05T04:30:41.742Z,26.50
2022-08-05T04:33:09.722Z,26.30
2022-08-05T04:36:16.764Z,26.30
2022-08-05T04:38:39.859Z,26.40
2022-08-05T04:41:07.534Z,26.30
2022-08-05T04:43:48.168Z,26.30
2022-08-05T04:46:27.848Z,26.40
2022-08-05T04:48:57.978Z,26.70
2022-08-05T04:51:25.548Z,27.00
2022-08-05T04:53:57.046Z,27.20
2022-08-05T04:56:35.106Z,27.30
2022-08-05T04:59:22.315Z,27.20
2022-08-05T05:02:07.817Z,27.10
2022-08-05T05:04:47.604Z,27.10
2022-08-05T05:07:20.344Z,27.00
2022-08-05T05:09:52.016Z,26.80
2022-08-05T05:12:20.543Z,26.70
2022-08-05T05:14:50.859Z,26.50
2022-08-05T05:17:23.286Z,26.30
2022-08-05T05:19:54.156Z,26.10
2022-08-05T05:22:22.929Z,26.00
2022-08-05T05:24:57.758Z,25.90
2022-08-05T05:27:45.950Z,25.70
2022-08-05T05:30:29.817Z,25.60
2022-08-05T05:33:03.483Z,25.40
2022-08-05T05:35:37.899Z,25.30
2022-08-05T05:38:09.397Z,25.20
2022-08-05T05:40:43.833Z,25.20
2022-08-05T05:43:27.560Z,25.40
2022-08-05T05:46:03.739Z,25.80
2022-08-05T05:48:32.227Z,26.30
2022-08-05T05:51:15.196Z,26.40
2022-08-05T05:53:54.541Z,26.50
2022-08-05T05:56:32.486Z,26.70
2022-08-05T05:59:03.604Z,26.70
2022-08-05T06:01:38.251Z,26.60
2022-08-05T06:04:12.963Z,26.40
2022-08-05T06:06:43.181Z,26.40
2022-08-05T06:09:17.532Z,26.60
2022-08-05T06:12:01.130Z,26.60
2022-08-05T06:14:29.307Z,26.30
2022-08-05T06:16:57.010Z,25.90
2022-08-05T06:19:34.090Z,25.70
2022-08-05T06:22:06.633Z,25.60
2022-08-05T06:24:34.889Z,25.60
2022-08-05T06:27:02.257Z,25.70
2022-08-05T06:29:51.069Z,25.60
2022-08-05T06:32:25.128Z,25.60
2022-08-05T06:34:56.241Z,25.60
2022-08-05T06:37:55.797Z,25.70
2022-08-05T06:40:12.442Z,25.60
2022-08-05T06:42:40.564Z,25.60
2022-08-05T06:45:09.460Z,25.70
2022-08-05T06:48:36.627Z,25.70
2022-08-05T06:50:24.835Z,25.60
2022-08-05T06:52:58.617Z,25.50
2022-08-05T06:55:30.313Z,25.50
2022-08-05T06:58:20.585Z,25.50
2022-08-05T07:00:50.620Z,25.50
2022-08-05T07:03:17.515Z,25.50
2022-08-05T07:05:46.417Z,25.50
2022-08-05T07:08:13.312Z,25.60
2022-08-05T07:10:53.327Z,25.70
2022-08-05T07:13:56.835Z,25.80
2022-08-05T07:17:59.722Z,25.90
2022-08-05T07:20:16.753Z,25.90
2022-08-05T07:22:22.029Z,26.00
2022-08-05T07:24:56.709Z,26.10
2022-08-05T07:27:27.234Z,26.30
2022-08-05T07:30:28.129Z,26.30
2022-08-05T07:32:53.382Z,26.40
2022-08-05T07:36:05.228Z,26.50
2022-08-05T07:38:06.880Z,26.70
2022-08-05T07:40:39.191Z,26.70
2022-08-05T07:43:14.501Z,26.90
2022-08-05T07:45:57.014Z,27.00
2022-08-05T07:49:02.069Z,27.20
2022-08-05T07:51:23.461Z,27.30
2022-08-05T07:53:57.844Z,27.40
2022-08-05T07:57:00.793Z,27.30
2022-08-05T07:59:11.391Z,27.10
2022-08-05T08:01:51.711Z,27.20
2022-08-05T08:04:37.965Z,27.20
2022-08-05T08:07:07.087Z,27.10
2022-08-05T08:09:34.530Z,27.00
2022-08-05T08:12:09.030Z,27.00
2022-08-05T08:14:42.346Z,27.00
2022-08-05T08:17:16.033Z,27.00
2022-08-05T08:20:23.383Z,27.20
2022-08-05T08:22:32.403Z,27.30
2022-08-05T08:25:02.787Z,27.50
2022-08-05T08:27:40.242Z,27.50
2022-08-05T08:30:29.382Z,27.50
2022-08-05T08:33:04.554Z,27.50
2022-08-05T08:35:34.830Z,27.50
2022-08-05T08:38:07.629Z,27.60
2022-08-05T08:40:35.317Z,27.70
2022-08-05T08:44:54.619Z,27.70
2022-08-05T08:45:54.009Z,27.70
2022-08-05T08:48:37.607Z,27.80
2022-08-05T08:52:02.325Z,27.70
2022-08-05T08:53:55.397Z,27.80
2022-08-05T08:56:23.523Z,27.80
2022-08-05T08:58:54.464Z,27.70
2022-08-05T09:01:21.344Z,27.80
2022-08-05T09:03:57.307Z,27.90
2022-08-05T09:06:28.544Z,28.00
2022-08-05T09:08:59.346Z,27.90
2022-08-05T09:11:50.789Z,27.90
2022-08-05T09:14:57.152Z,27.80
2022-08-05T09:17:00.936Z,27.90
2022-08-05T09:19:36.710Z,28.00
2022-08-05T09:22:22.998Z,28.10
2022-08-05T09:25:23.678Z,28.20
2022-08-05T09:28:04.170Z,28.30
2022-08-05T09:30:34.352Z,28.30
2022-08-05T09:33:04.509Z,28.30
2022-08-05T09:35:31.519Z,28.30
2022-08-05T09:38:16.403Z,28.40
2022-08-05T09:40:52.732Z,28.40
2022-08-05T09:43:28.097Z,28.50
2022-08-05T09:46:30.153Z,28.70
2022-08-05T09:49:06.807Z,28.80
2022-08-05T09:51:38.071Z,28.90
2022-08-05T09:54:08.568Z,28.90
2022-08-05T09:56:38.030Z,29.00
2022-08-05T09:59:17.072Z,29.10
2022-08-05T10:01:46.502Z,29.20
2022-08-05T10:04:16.109Z,29.20
2022-08-05T10:06:59.224Z,29.30
2022-08-05T10:09:28.128Z,29.30
2022-08-05T10:12:30.785Z,29.40
2022-08-05T10:15:23.241Z,29.30
2022-08-05T10:18:10.170Z,29.30
2022-08-05T10:21:06.396Z,29.40
2022-08-05T10:23:59.624Z,29.60
2022-08-05T10:26:31.672Z,29.70
2022-08-05T10:29:00.766Z,29.80
2022-08-05T10:32:51.847Z,29.80
2022-08-05T10:34:14.646Z,29.80
2022-08-05T10:36:44.149Z,29.70
2022-08-05T10:39:25.084Z,29.70
2022-08-05T10:42:18.379Z,29.80
2022-08-05T10:44:49.247Z,29.90
2022-08-05T10:47:26.789Z,30.10
2022-08-05T10:50:32.277Z,30.00
2022-08-05T10:53:03.204Z,30.00
2022-08-05T10:55:32.803Z,30.10
2022-08-05T10:58:20.546Z,30.20
2022-08-05T11:00:48.431Z,30.20
2022-08-05T11:03:24.234Z,30.30
2022-08-05T11:06:15.812Z,30.40
2022-08-05T11:09:16.289Z,30.50
2022-08-05T11:11:53.536Z,30.50
2022-08-05T11:18:07.342Z,30.80
2022-08-05T11:20:43.662Z,30.80
2022-08-05T11:24:05.259Z,30.80
2022-08-05T11:26:28.343Z,30.40
2022-08-05T11:29:06.846Z,30.40
2022-08-05T11:31:53.945Z,30.10
2022-08-05T11:34:37.703Z,30.20
2022-08-05T11:38:14.280Z,30.30
2022-08-05T11:40:00.237Z,30.40
2022-08-05T11:42:32.016Z,30.50
2022-08-05T11:45:03.507Z,30.70
2022-08-05T11:47:49.317Z,30.70
2022-08-05T11:50:17.895Z,30.70
2022-08-05T11:52:46.257Z,30.80
2022-08-05T11:55:16.418Z,30.90
2022-08-05T11:58:09.878Z,30.90
2022-08-05T12:00:38.133Z,31.00
2022-08-05T12:04:00.667Z,31.00
2022-08-05T12:06:31.953Z,31.00
2022-08-05T12:08:59.515Z,31.00
2022-08-05T12:11:40.212Z,31.00
2022-08-05T12:14:08.661Z,31.00
2022-08-05T12:16:45.605Z,31.00
2022-08-05T12:20:26.215Z,31.10
2022-08-05T12:22:02.571Z,31.10
2022-08-05T12:24:30.076Z,31.20
2022-08-05T12:26:57.790Z,31.30
2022-08-05T12:29:27.010Z,31.40
2022-08-05T12:31:57.377Z,31.40
2022-08-05T12:34:31.088Z,31.50
2022-08-05T12:37:10.847Z,31.40
2022-08-05T12:39:48.532Z,31.30
2022-08-05T12:42:20.241Z,31.40
2022-08-05T12:44:47.511Z,31.30
2022-08-05T12:47:26.684Z,31.30
2022-08-05T12:50:03.836Z,31.30
2022-08-05T12:52:39.408Z,31.50
2022-08-05T12:55:23.577Z,31.50
2022-08-05T12:58:50.059Z,31.50
2022-08-05T13:02:02.133Z,31.50
2022-08-05T13:03:42.169Z,31.60
2022-08-05T13:06:17.628Z,31.70
2022-08-05T13:08:51.621Z,31.80
2022-08-05T13:11:46.937Z,31.80
2022-08-05T13:14:20.121Z,31.90
2022-08-05T13:16:52.403Z,32.10
2022-08-05T13:19:21.776Z,32.10
2022-08-05T13:21:52.574Z,32.10
2022-08-05T13:24:36.513Z,32.10
2022-08-05T13:27:22.947Z,32.10
2022-08-05T13:30:31.680Z,32.20
2022-08-05T13:32:50.636Z,32.20
2022-08-05T13:35:22.413Z,32.30
2022-08-05T13:37:58.314Z,32.40
2022-08-05T13:40:49.813Z,32.60
2022-08-05T13:43:22.089Z,32.70
2022-08-05T13:45:49.229Z,32.70
2022-08-05T13:48:58.233Z,32.70
2022-08-05T13:51:13.656Z,32.80
2022-08-05T13:53:47.432Z,33.10
2022-08-05T13:56:18.950Z,33.30
2022-08-05T13:58:52.784Z,33.50
2022-08-05T14:01:24.699Z,33.60
2022-08-05T14:04:21.433Z,33.60
2022-08-05T14:06:48.216Z,33.60
2022-08-05T14:09:25.540Z,33.60
2022-08-05T14:12:00.661Z,33.30
2022-08-05T14:14:33.825Z,33.20
2022-08-05T14:17:00.846Z,33.30
2022-08-05T14:19:27.611Z,33.40
2022-08-05T14:22:10.056Z,33.50
2022-08-05T14:24:39.851Z,33.20
2022-08-05T14:27:17.607Z,32.80
2022-08-05T14:29:45.427Z,32.80
2022-08-05T14:32:26.569Z,32.50
2022-08-05T14:34:54.783Z,32.40
2022-08-05T14:37:45.539Z,32.60
2022-08-05T14:40:14.168Z,32.80
2022-08-05T14:42:43.822Z,33.10
2022-08-05T14:45:10.853Z,33.20
2022-08-05T14:48:05.486Z,33.20
2022-08-05T14:50:27.058Z,32.90
2022-08-05T14:52:58.364Z,32.60
2022-08-05T14:55:38.371Z,32.30
2022-08-05T14:58:12.171Z,32.30
2022-08-05T15:00:58.388Z,32.40
2022-08-05T15:03:26.216Z,32.40
2022-08-05T15:06:07.738Z,32.40
2022-08-05T15:08:59.170Z,32.30
2022-08-05T15:11:51.666Z,32.40
2022-08-05T15:14:20.232Z,32.50
2022-08-05T15:16:59.876Z,32.80
2022-08-05T15:19:26.611Z,32.80
2022-08-05T15:21:59.940Z,32.70
2022-08-05T15:24:27.715Z,32.70
2022-08-05T15:26:55.867Z,32.70
2022-08-05T15:29:23.729Z,32.80
2022-08-05T15:31:56.602Z,32.70
2022-08-05T15:34:32.141Z,32.50
2022-08-05T15:37:03.469Z,32.30
2022-08-05T15:40:59.935Z,32.20
2022-08-05T15:42:28.892Z,32.20
2022-08-05T15:45:11.340Z,32.50
2022-08-05T15:47:43.163Z,32.50
2022-08-05T15:50:15.352Z,32.50
2022-08-05T15:52:53.322Z,32.40
2022-08-05T15:55:25.045Z,32.40
2022-08-05T15:58:16.849Z,32.20
2022-08-05T16:01:03.500Z,32.20
2022-08-05T16:03:32.663Z,32.10
2022-08-05T16:06:00.862Z,32.10
2022-08-05T16:08:30.430Z,32.00
2022-08-05T16:10:57.991Z,31.80
2022-08-05T16:13:34.147Z,31.70
2022-08-05T16:16:03.375Z,31.70
2022-08-05T16:18:33.235Z,31.70
2022-08-05T16:21:04.134Z,31.60
2022-08-05T16:23:53.241Z,31.30
2022-08-05T16:26:26.134Z,31.20
2022-08-05T16:28:55.217Z,30.80
2022-08-05T16:31:22.449Z,30.70
2022-08-05T16:33:49.576Z,30.80
2022-08-05T16:36:20.493Z,30.70
2022-08-05T16:38:54.962Z,30.80
2022-08-05T16:42:13.615Z,30.70
2022-08-05T16:44:14.759Z,30.40
2022-08-05T16:46:55.723Z,30.10
2022-08-05T16:49:23.357Z,30.10
2022-08-05T16:51:54.769Z,30.00
2022-08-05T16:54:28.666Z,29.80
2022-08-05T16:56:58.857Z,29.70
2022-08-05T16:59:28.070Z,29.70
2022-08-05T17:01:57.876Z,29.50
2022-08-05T17:04:27.749Z,29.50
2022-08-05T17:07:03.574Z,29.50
2022-08-05T17:09:58.186Z,29.40
2022-08-05T17:12:50.536Z,29.30
2022-08-05T17:15:15.618Z,29.20
2022-08-05T17:17:43.926Z,29.20
2022-08-05T17:20:16.397Z,29.10
2022-08-05T17:22:43.511Z,29.10
2022-08-05T17:25:33.564Z,29.00
2022-08-05T17:27:58.555Z,29.10
2022-08-05T17:30:28.292Z,29.10
2022-08-05T17:32:55.818Z,29.00
2022-08-05T17:35:22.751Z,29.00
2022-08-05T17:37:50.620Z,28.90
2022-08-05T17:40:22.711Z,29.00
2022-08-05T17:42:51.134Z,29.10
2022-08-05T17:45:24.776Z,29.30
2022-08-05T17:47:55.396Z,29.30
2022-08-05T17:50:28.166Z,29.40
2022-08-05T17:53:08.516Z,29.40
2022-08-05T17:55:39.572Z,29.40
2022-08-05T17:58:11.222Z,29.30
2022-08-05T18:00:47.175Z,29.00
2022-08-05T18:03:39.267Z,28.70
2022-08-05T18:06:11.419Z,28.50
2022-08-05T18:08:44.699Z,28.40
2022-08-05T18:11:24.419Z,28.40
2022-08-05T18:14:03.696Z,28.30
2022-08-05T18:16:31.510Z,28.20
2022-08-05T18:18:58.158Z,28.10
2022-08-05T18:21:25.991Z,28.00
2022-08-05T18:23:53.989Z,28.10
2022-08-05T18:26:27.605Z,28.00
2022-08-05T18:28:56.865Z,28.00
2022-08-05T18:31:24.339Z,27.80
2022-08-05T18:33:51.865Z,27.90
2022-08-05T18:36:19.045Z,27.70
2022-08-05T18:38:46.399Z,27.70
2022-08-05T18:41:53.654Z,27.80
2022-08-05T18:44:05.556Z,27.80
2022-08-05T18:46:33.403Z,27.80
2022-08-05T18:49:20.856Z,27.80
2022-08-05T18:52:08.859Z,27.70
2022-08-05T18:54:53.017Z,27.70
2022-08-05T18:57:23.875Z,27.70
2022-08-05T19:00:02.599Z,27.50
2022-08-05T19:02:30.289Z,27.40
2022-08-05T19:05:02.477Z,27.30
2022-08-05T19:07:47.970Z,27.30
2022-08-05T19:10:27.947Z,27.20
2022-08-05T19:12:56.826Z,27.10
2022-08-05T19:15:58.014Z,27.00
2022-08-05T19:18:20.775Z,26.70
2022-08-05T19:20:51.760Z,26.70
2022-08-05T19:24:04.543Z,26.70
2022-08-05T19:26:05.434Z,26.80
2022-08-05T19:28:37.577Z,26.80
2022-08-05T19:31:09.711Z,26.80
2022-08-05T19:33:48.206Z,26.70
2022-08-05T19:36:22.842Z,26.50
2022-08-05T19:38:49.550Z,26.30
2022-08-05T19:41:17.773Z,26.40
2022-08-05T19:44:06.851Z,26.20
2022-08-05T19:46:37.874Z,26.00
2022-08-05T19:49:07.579Z,25.90
2022-08-05T19:52:06.011Z,25.90
2022-08-05T19:54:31.143Z,25.70
2022-08-05T19:57:06.715Z,25.60
2022-08-05T19:59:54.799Z,25.40
2022-08-05T20:02:26.016Z,25.60
2022-08-05T20:04:55.280Z,25.50
2022-08-05T20:07:47.311Z,25.40
2022-08-05T20:10:11.734Z,25.10
2022-08-05T20:12:47.578Z,24.80
2022-08-05T20:15:47.786Z,24.70
2022-08-05T20:18:10.193Z,24.60
2022-08-05T20:20:56.602Z,24.50
2022-08-05T20:23:39.988Z,24.30
2022-08-05T20:26:16.168Z,24.10
2022-08-05T20:28:51.451Z,24.30
2022-08-05T20:31:28.273Z,24.20
2022-08-05T20:34:03.984Z,24.00
2022-08-05T20:36:30.984Z,23.60
2022-08-05T20:38:59.486Z,23.40
2022-08-05T20:41:43.870Z,23.30
2022-08-05T20:44:19.300Z,23.40
2022-08-05T20:46:58.287Z,23.50
2022-08-05T20:49:26.176Z,23.70
2022-08-05T20:51:54.774Z,23.60
2022-08-05T20:54:22.852Z,23.40
2022-08-05T20:56:52.680Z,23.10
2022-08-05T20:59:26.535Z,23.10
2022-08-05T21:01:57.183Z,22.90
2022-08-05T21:04:26.927Z,22.80
2022-08-05T21:06:54.384Z,22.80
2022-08-05T21:09:21.769Z,22.60
2022-08-05T21:12:07.169Z,22.40
2022-08-05T21:14:35.569Z,22.50
2022-08-05T21:17:06.109Z,22.50
2022-08-05T21:19:47.208Z,22.30
2022-08-05T21:22:17.757Z,22.10
2022-08-05T21:24:49.027Z,22.50
2022-08-05T21:27:18.412Z,23.00
2022-08-05T21:29:48.230Z,23.40
2022-08-05T21:32:24.443Z,22.80
2022-08-05T21:35:06.767Z,22.70
2022-08-05T21:37:41.678Z,22.60
2022-08-05T21:40:14.390Z,22.50
2022-08-05T21:42:44.965Z,22.30
2022-08-05T21:45:24.695Z,22.30
2022-08-05T21:47:56.144Z,22.10
2022-08-05T21:50:25.101Z,22.10
2022-08-05T21:52:51.897Z,22.30
2022-08-05T21:56:01.781Z,22.10
2022-08-05T21:58:06.888Z,21.60
2022-08-05T22:00:37.276Z,21.50
2022-08-05T22:03:04.052Z,21.50
2022-08-05T22:05:48.086Z,21.50
2022-08-05T22:08:22.526Z,21.90
2022-08-05T22:10:53.356Z,22.10
2022-08-05T22:14:05.793Z,21.80
2022-08-05T22:16:32.100Z,21.50
2022-08-05T22:18:53.970Z,21.20
2022-08-05T22:21:25.480Z,21.20
2022-08-05T22:24:13.440Z,22.20
2022-08-05T22:27:16.590Z,23.10
2022-08-05T22:29:44.206Z,23.10
2022-08-05T22:32:17.533Z,23.10
2022-08-05T22:34:44.613Z,23.10
2022-08-05T22:37:12.550Z,23.00
2022-08-05T22:39:39.452Z,22.80
2022-08-05T22:42:12.683Z,22.80
2022-08-05T22:44:48.642Z,22.70
2022-08-05T22:47:29.970Z,22.70
2022-08-05T22:50:19.554Z,22.40
2022-08-05T22:52:45.116Z,22.20
2022-08-05T22:55:18.203Z,22.10
2022-08-05T22:57:47.425Z,22.10
2022-08-05T23:00:18.240Z,22.10
2022-08-05T23:02:48.085Z,22.20
2022-08-05T23:05:15.749Z,22.20
2022-08-05T23:07:48.253Z,21.90
2022-08-05T23:10:16.490Z,21.60
2022-08-05T23:12:48.062Z,21.30
2022-08-05T23:15:18.932Z,21.30
2022-08-05T23:18:00.409Z,21.60
2022-08-05T23:20:28.632Z,22.10
2022-08-05T23:22:55.898Z,22.70
2022-08-05T23:25:53.524Z,22.80
2022-08-05T23:28:10.739Z,22.50
2022-08-05T23:30:40.381Z,21.90
2022-08-05T23:33:22.140Z,21.50
2022-08-05T23:35:56.117Z,21.10
2022-08-05T23:38:24.262Z,20.90
2022-08-05T23:40:52.786Z,20.70
2022-08-05T23:43:24.463Z,20.60
2022-08-05T23:45:52.533Z,20.50
2022-08-05T23:48:19.745Z,20.10
2022-08-05T23:50:46.516Z,19.90
2022-08-05T23:53:22.445Z,19.90
2022-08-05T23:55:49.916Z,20.00
2022-08-05T23:58:31.665Z,20.10
